sensor_id;sensor_type;location;lat;lon;timestamp;P1;durP1;ratioP1;P2;durP2;ratioP2
69953;SDS011;57276;51.364;12.376;2023-04-01T00:01:05;5.53;;;1.60;;
69953;SDS011;57276;51.364;12.376;2023-04-01T00:07:07;6.50;;;1.38;;
69953;SDS011;57276;51.364;12.376;2023-04-01T00:13:08;5.57;;;1.30;;
69953;SDS011;57276;51.364;12.376;2023-04-01T00:19:10;4.88;;;1.40;;
69953;SDS011;57276;51.364;12.376;2023-04-01T00:25:12;4.70;;;1.43;;
69953;SDS011;57276;51.364;12.376;2023-04-01T00:31:13;6.30;;;1.42;;
69953;SDS011;57276;51.364;12.376;2023-04-01T00:37:15;5.60;;;1.35;;
69953;SDS011;57276;51.364;12.376;2023-04-01T00:43:18;4.40;;;1.07;;
69953;SDS011;57276;51.364;12.376;2023-04-01T00:49:29;4.47;;;1.17;;
69953;SDS011;57276;51.364;12.376;2023-04-01T00:55:33;4.13;;;1.00;;
69953;SDS011;57276;51.364;12.376;2023-04-01T01:01:36;3.88;;;1.00;;
69953;SDS011;57276;51.364;12.376;2023-04-01T01:07:44;3.50;;;1.00;;
69953;SDS011;57276;51.364;12.376;2023-04-01T01:13:53;4.03;;;1.00;;
69953;SDS011;57276;51.364;12.376;2023-04-01T01:20:07;3.45;;;1.20;;
69953;SDS011;57276;51.364;12.376;2023-04-01T01:38:51;5.43;;;1.20;;
69953;SDS011;57276;51.364;12.376;2023-04-01T01:44:53;3.30;;;1.10;;
69953;SDS011;57276;51.364;12.376;2023-04-01T01:50:55;4.10;;;1.30;;
69953;SDS011;57276;51.364;12.376;2023-04-01T01:57:07;5.53;;;1.13;;
69953;SDS011;57276;51.364;12.376;2023-04-01T02:03:14;6.93;;;1.50;;
69953;SDS011;57276;51.364;12.376;2023-04-01T02:09:15;5.93;;;1.60;;
69953;SDS011;57276;51.364;12.376;2023-04-01T02:15:18;3.83;;;1.47;;
69953;SDS011;57276;51.364;12.376;2023-04-01T02:21:21;5.15;;;1.02;;
69953;SDS011;57276;51.364;12.376;2023-04-01T02:27:23;3.13;;;1.07;;
69953;SDS011;57276;51.364;12.376;2023-04-01T02:33:25;6.47;;;1.20;;
69953;SDS011;57276;51.364;12.376;2023-04-01T02:39:28;6.70;;;1.42;;
69953;SDS011;57276;51.364;12.376;2023-04-01T02:45:29;6.33;;;1.03;;
69953;SDS011;57276;51.364;12.376;2023-04-01T02:51:32;7.18;;;1.20;;
69953;SDS011;57276;51.364;12.376;2023-04-01T02:57:33;8.40;;;1.10;;
69953;SDS011;57276;51.364;12.376;2023-04-01T03:03:35;3.88;;;0.80;;
69953;SDS011;57276;51.364;12.376;2023-04-01T03:09:37;6.35;;;1.20;;
69953;SDS011;57276;51.364;12.376;2023-04-01T03:15:38;3.23;;;0.80;;
69953;SDS011;57276;51.364;12.376;2023-04-01T03:21:40;2.97;;;0.98;;
69953;SDS011;57276;51.364;12.376;2023-04-01T03:27:41;6.40;;;1.33;;
69953;SDS011;57276;51.364;12.376;2023-04-01T03:33:43;8.90;;;1.20;;
69953;SDS011;57276;51.364;12.376;2023-04-01T03:39:44;6.38;;;1.23;;
69953;SDS011;57276;51.364;12.376;2023-04-01T03:45:47;4.00;;;1.40;;
69953;SDS011;57276;51.364;12.376;2023-04-01T03:51:48;6.38;;;1.30;;
69953;SDS011;57276;51.364;12.376;2023-04-01T03:57:50;4.93;;;1.40;;
69953;SDS011;57276;51.364;12.376;2023-04-01T04:03:52;3.65;;;1.42;;
69953;SDS011;57276;51.364;12.376;2023-04-01T04:09:56;5.45;;;1.55;;
69953;SDS011;57276;51.364;12.376;2023-04-01T04:15:57;8.80;;;1.57;;
69953;SDS011;57276;51.364;12.376;2023-04-01T04:21:59;6.65;;;1.50;;
69953;SDS011;57276;51.364;12.376;2023-04-01T04:28:03;5.87;;;1.30;;
69953;SDS011;57276;51.364;12.376;2023-04-01T04:34:04;5.18;;;1.40;;
69953;SDS011;57276;51.364;12.376;2023-04-01T04:40:09;5.55;;;1.50;;
69953;SDS011;57276;51.364;12.376;2023-04-01T04:46:11;6.57;;;1.30;;
69953;SDS011;57276;51.364;12.376;2023-04-01T04:52:13;3.17;;;1.15;;
69953;SDS011;57276;51.364;12.376;2023-04-01T04:58:14;4.60;;;1.30;;
69953;SDS011;57276;51.364;12.376;2023-04-01T05:04:17;5.90;;;1.48;;
69953;SDS011;57276;51.364;12.376;2023-04-01T05:10:19;4.43;;;1.20;;
69953;SDS011;57276;51.364;12.376;2023-04-01T05:16:23;6.60;;;1.67;;
69953;SDS011;57276;51.364;12.376;2023-04-01T05:22:24;5.80;;;1.38;;
69953;SDS011;57276;51.364;12.376;2023-04-01T05:28:26;5.33;;;1.10;;
69953;SDS011;57276;51.364;12.376;2023-04-01T05:34:28;4.93;;;1.30;;
69953;SDS011;57276;51.364;12.376;2023-04-01T05:40:30;3.88;;;1.00;;
69953;SDS011;57276;51.364;12.376;2023-04-01T05:46:31;5.33;;;1.10;;
69953;SDS011;57276;51.364;12.376;2023-04-01T05:52:42;4.68;;;1.10;;
69953;SDS011;57276;51.364;12.376;2023-04-01T05:58:46;4.83;;;0.87;;
69953;SDS011;57276;51.364;12.376;2023-04-01T06:04:48;5.45;;;1.10;;
69953;SDS011;57276;51.364;12.376;2023-04-01T06:17:16;4.53;;;1.00;;
69953;SDS011;57276;51.364;12.376;2023-04-01T06:23:23;4.45;;;1.00;;
69953;SDS011;57276;51.364;12.376;2023-04-01T06:36:13;7.50;;;1.20;;
69953;SDS011;57276;51.364;12.376;2023-04-01T06:48:54;3.53;;;1.30;;
69953;SDS011;57276;51.364;12.376;2023-04-01T06:55:47;5.05;;;1.50;;
69953;SDS011;57276;51.364;12.376;2023-04-01T07:02:02;6.73;;;1.93;;
69953;SDS011;57276;51.364;12.376;2023-04-01T07:08:08;4.80;;;1.30;;
69953;SDS011;57276;51.364;12.376;2023-04-01T07:14:20;5.57;;;1.50;;
69953;SDS011;57276;51.364;12.376;2023-04-01T07:20:24;5.17;;;1.70;;
69953;SDS011;57276;51.364;12.376;2023-04-01T07:26:28;4.93;;;1.70;;
69953;SDS011;57276;51.364;12.376;2023-04-01T07:32:40;4.20;;;1.77;;
69953;SDS011;57276;51.364;12.376;2023-04-01T07:39:03;5.40;;;1.42;;
69953;SDS011;57276;51.364;12.376;2023-04-01T07:45:44;4.95;;;1.70;;
69953;SDS011;57276;51.364;12.376;2023-04-01T07:58:16;5.68;;;1.52;;
69953;SDS011;57276;51.364;12.376;2023-04-01T08:10:49;3.05;;;1.00;;
69953;SDS011;57276;51.364;12.376;2023-04-01T08:17:16;2.72;;;0.63;;
69953;SDS011;57276;51.364;12.376;2023-04-01T08:23:22;7.33;;;0.90;;
69953;SDS011;57276;51.364;12.376;2023-04-01T08:29:27;4.80;;;0.77;;
69953;SDS011;57276;51.364;12.376;2023-04-01T08:35:38;5.70;;;0.70;;
69953;SDS011;57276;51.364;12.376;2023-04-01T08:48:17;3.88;;;0.80;;
69953;SDS011;57276;51.364;12.376;2023-04-01T08:54:35;3.07;;;0.70;;
69953;SDS011;57276;51.364;12.376;2023-04-01T09:25:46;3.07;;;0.80;;
69953;SDS011;57276;51.364;12.376;2023-04-01T09:31:57;5.22;;;0.90;;
69953;SDS011;57276;51.364;12.376;2023-04-01T09:38:35;5.30;;;0.90;;
69953;SDS011;57276;51.364;12.376;2023-04-01T09:44:48;4.75;;;0.80;;
69953;SDS011;57276;51.364;12.376;2023-04-01T09:50:53;7.53;;;0.70;;
69953;SDS011;57276;51.364;12.376;2023-04-01T10:03:31;5.50;;;0.80;;
69953;SDS011;57276;51.364;12.376;2023-04-01T10:15:49;3.47;;;0.80;;
69953;SDS011;57276;51.364;12.376;2023-04-01T10:22:17;2.80;;;0.80;;
69953;SDS011;57276;51.364;12.376;2023-04-01T10:41:44;4.90;;;1.07;;
69953;SDS011;57276;51.364;12.376;2023-04-01T10:54:37;3.38;;;0.90;;
69953;SDS011;57276;51.364;12.376;2023-04-01T11:01:20;3.47;;;0.90;;
69953;SDS011;57276;51.364;12.376;2023-04-01T11:14:09;5.47;;;1.17;;
69953;SDS011;57276;51.364;12.376;2023-04-01T11:26:41;3.17;;;0.95;;
69953;SDS011;57276;51.364;12.376;2023-04-01T11:33:05;3.33;;;0.90;;
69953;SDS011;57276;51.364;12.376;2023-04-01T11:39:30;3.58;;;0.90;;
69953;SDS011;57276;51.364;12.376;2023-04-01T11:45:39;4.73;;;1.77;;
69953;SDS011;57276;51.364;12.376;2023-04-01T12:23:11;3.38;;;0.70;;
69953;SDS011;57276;51.364;12.376;2023-04-01T12:35:53;2.23;;;0.60;;
69953;SDS011;57276;51.364;12.376;2023-04-01T12:42:03;3.75;;;1.10;;
69953;SDS011;57276;51.364;12.376;2023-04-01T12:54:47;2.50;;;0.60;;
69953;SDS011;57276;51.364;12.376;2023-04-01T13:07:01;2.47;;;0.80;;
69953;SDS011;57276;51.364;12.376;2023-04-01T13:19:21;2.97;;;0.97;;
69953;SDS011;57276;51.364;12.376;2023-04-01T13:25:28;2.70;;;0.60;;
69953;SDS011;57276;51.364;12.376;2023-04-01T13:37:42;2.20;;;0.57;;
69953;SDS011;57276;51.364;12.376;2023-04-01T13:43:49;2.42;;;0.70;;
69953;SDS011;57276;51.364;12.376;2023-04-01T13:49:57;2.10;;;0.70;;
69953;SDS011;57276;51.364;12.376;2023-04-01T14:02:28;2.55;;;0.70;;
69953;SDS011;57276;51.364;12.376;2023-04-01T14:14:43;2.53;;;0.82;;
69953;SDS011;57276;51.364;12.376;2023-04-01T14:20:49;3.13;;;0.63;;
69953;SDS011;57276;51.364;12.376;2023-04-01T14:26:58;4.85;;;0.70;;
69953;SDS011;57276;51.364;12.376;2023-04-01T14:45:55;4.25;;;0.80;;
69953;SDS011;57276;51.364;12.376;2023-04-01T14:52:04;3.77;;;0.83;;
69953;SDS011;57276;51.364;12.376;2023-04-01T15:04:13;3.90;;;0.90;;
69953;SDS011;57276;51.364;12.376;2023-04-01T15:10:28;2.50;;;0.57;;
69953;SDS011;57276;51.364;12.376;2023-04-01T15:16:34;3.13;;;0.70;;
69953;SDS011;57276;51.364;12.376;2023-04-01T15:22:45;6.37;;;0.70;;
69953;SDS011;57276;51.364;12.376;2023-04-01T15:28:56;2.70;;;0.80;;
69953;SDS011;57276;51.364;12.376;2023-04-01T15:47:58;7.68;;;1.42;;
69953;SDS011;57276;51.364;12.376;2023-04-01T15:54:05;7.97;;;2.10;;
69953;SDS011;57276;51.364;12.376;2023-04-01T16:06:29;12.52;;;2.85;;
69953;SDS011;57276;51.364;12.376;2023-04-01T16:18:52;5.35;;;1.85;;
69953;SDS011;57276;51.364;12.376;2023-04-01T16:31:30;5.30;;;2.75;;
69953;SDS011;57276;51.364;12.376;2023-04-01T16:37:37;6.43;;;3.00;;
69953;SDS011;57276;51.364;12.376;2023-04-01T16:43:42;4.97;;;2.47;;
69953;SDS011;57276;51.364;12.376;2023-04-01T16:49:59;4.88;;;2.20;;
69953;SDS011;57276;51.364;12.376;2023-04-01T17:02:07;4.97;;;1.98;;
69953;SDS011;57276;51.364;12.376;2023-04-01T17:08:27;4.90;;;2.17;;
69953;SDS011;57276;51.364;12.376;2023-04-01T17:27:18;5.57;;;2.30;;
69953;SDS011;57276;51.364;12.376;2023-04-01T17:33:30;6.13;;;2.30;;
69953;SDS011;57276;51.364;12.376;2023-04-01T17:46:01;11.20;;;2.13;;
69953;SDS011;57276;51.364;12.376;2023-04-01T17:52:25;8.07;;;3.70;;
69953;SDS011;57276;51.364;12.376;2023-04-01T17:58:40;9.13;;;4.40;;
69953;SDS011;57276;51.364;12.376;2023-04-01T18:04:49;10.00;;;3.72;;
69953;SDS011;57276;51.364;12.376;2023-04-01T18:11:00;6.22;;;3.13;;
69953;SDS011;57276;51.364;12.376;2023-04-01T18:17:12;6.00;;;3.40;;
69953;SDS011;57276;51.364;12.376;2023-04-01T18:30:18;11.87;;;6.83;;
69953;SDS011;57276;51.364;12.376;2023-04-01T18:42:46;5.95;;;2.90;;
69953;SDS011;57276;51.364;12.376;2023-04-01T19:01:24;8.40;;;3.80;;
69953;SDS011;57276;51.364;12.376;2023-04-01T19:13:51;4.60;;;2.10;;
69953;SDS011;57276;51.364;12.376;2023-04-01T19:25:57;4.32;;;2.10;;
69953;SDS011;57276;51.364;12.376;2023-04-01T19:38:23;4.65;;;2.10;;
69953;SDS011;57276;51.364;12.376;2023-04-01T19:44:34;5.43;;;2.17;;
69953;SDS011;57276;51.364;12.376;2023-04-01T19:50:46;7.37;;;2.40;;
69953;SDS011;57276;51.364;12.376;2023-04-01T19:56:54;5.07;;;2.50;;
69953;SDS011;57276;51.364;12.376;2023-04-01T20:03:43;5.03;;;2.50;;
69953;SDS011;57276;51.364;12.376;2023-04-01T20:09:35;5.07;;;2.28;;
69953;SDS011;57276;51.364;12.376;2023-04-01T20:15:45;5.05;;;2.38;;
69953;SDS011;57276;51.364;12.376;2023-04-01T20:21:47;5.37;;;2.53;;
69953;SDS011;57276;51.364;12.376;2023-04-01T20:27:55;4.75;;;2.20;;
69953;SDS011;57276;51.364;12.376;2023-04-01T20:52:47;5.70;;;2.63;;
69953;SDS011;57276;51.364;12.376;2023-04-01T21:05:23;6.03;;;2.80;;
69953;SDS011;57276;51.364;12.376;2023-04-01T21:12:16;7.75;;;3.00;;
69953;SDS011;57276;51.364;12.376;2023-04-01T21:18:13;6.68;;;2.80;;
69953;SDS011;57276;51.364;12.376;2023-04-01T21:30:55;6.28;;;3.15;;
69953;SDS011;57276;51.364;12.376;2023-04-01T21:37:04;6.43;;;3.07;;
69953;SDS011;57276;51.364;12.376;2023-04-01T21:43:17;6.60;;;3.28;;
69953;SDS011;57276;51.364;12.376;2023-04-01T21:49:45;7.82;;;3.63;;
69953;SDS011;57276;51.364;12.376;2023-04-01T21:55:56;7.00;;;3.50;;
69953;SDS011;57276;51.364;12.376;2023-04-01T22:02:14;6.40;;;3.22;;
69953;SDS011;57276;51.364;12.376;2023-04-01T22:14:30;5.60;;;2.90;;
69953;SDS011;57276;51.364;12.376;2023-04-01T22:26:38;6.60;;;3.13;;
69953;SDS011;57276;51.364;12.376;2023-04-01T22:32:45;6.68;;;3.20;;
69953;SDS011;57276;51.364;12.376;2023-04-01T22:38:54;5.40;;;2.70;;
69953;SDS011;57276;51.364;12.376;2023-04-01T22:57:07;5.83;;;2.80;;
69953;SDS011;57276;51.364;12.376;2023-04-01T23:03:14;7.45;;;3.13;;
69953;SDS011;57276;51.364;12.376;2023-04-01T23:09:27;7.37;;;3.07;;
69953;SDS011;57276;51.364;12.376;2023-04-01T23:15:29;6.13;;;2.88;;
69953;SDS011;57276;51.364;12.376;2023-04-01T23:21:35;6.20;;;3.20;;
69953;SDS011;57276;51.364;12.376;2023-04-01T23:27:44;6.00;;;2.80;;
69953;SDS011;57276;51.364;12.376;2023-04-01T23:33:49;5.55;;;2.85;;
69953;SDS011;57276;51.364;12.376;2023-04-01T23:39:54;5.00;;;2.50;;
69953;SDS011;57276;51.364;12.376;2023-04-01T23:45:57;5.20;;;2.67;;
69953;SDS011;57276;51.364;12.376;2023-04-01T23:52:22;5.22;;;2.35;;
69953;SDS011;57276;51.364;12.376;2023-04-01T23:58:24;4.70;;;2.40;;
